Bella Vita — ZGAG5 — position and weather

sailwx.info

Track history (hours):
 
Tides and Currents Weather Stations Pressure Air Temp Water Temp Dewpoint Dewpoint Depression Visibility Wind Speed Wind Dir Waves Ship Positions

Bella Vita

Last reported at 2017-May-30 00:59 UTC. Time now 2017-May-30 01:13 UTC.
Position N 42°05' E 011°11'.

Length 45 m; draft 2.7 m.

Type: Pleasure craft. MMSI: 319016600.

Date/timePositionNaut miles runAvg speedWind from/ knotsBaromVisibWave heightAir tempDewpointWater temp
2017-May-30 00:59N 42°05' E 011°11'612.9
2017-May-30 00:30N 42°09' E 011°05'813.2
2017-May-29 23:55N 42°13' E 010°56'512.9
2017-May-29 23:30N 42°17' E 010°50'612.9
2017-May-29 23:00N 42°20' E 010°43'713.0
2017-May-29 22:28N 42°24' E 010°35'613.2
2017-May-29 21:59N 42°28' E 010°28'913.2
2017-May-29 21:17N 42°33' E 010°18'413.2
2017-May-29 20:59N 42°35' E 010°13'613.1
2017-May-29 20:29N 42°39' E 010°07'813.4
2017-May-29 19:54N 42°44' E 009°58'513.3
2017-May-29 19:30N 42°46' E 009°51'713.3
2017-May-29 19:00N 42°50' E 009°44'713.3
2017-May-29 18:30N 42°53' E 009°36'612.7
2017-May-29 18:00N 42°60' E 009°35'612.3
2017-May-29 17:30N 43°05' E 009°30'912.5
2017-May-29 16:48N 43°09' E 009°20'413.0
2017-May-29 16:30N 43°10' E 009°14'1613.3
2017-May-29 15:18N 43°13' E 008°53'1513.1
2017-May-29 14:10N 43°17' E 008°34'1313.0
2017-May-29 13:08N 43°20' E 008°16'212.7
2017-May-29 13:00N 43°21' E 008°13'713.0
2017-May-29 12:30N 43°22' E 008°05'613.0
2017-May-29 12:00N 43°24' E 007°56'613.0
2017-May-29 11:30N 43°25' E 007°47'713.0
2017-May-29 11:00N 43°27' E 007°39'612.8
2017-May-29 10:30N 43°28' E 007°30'19 0.4
2017-May-27 08:42N 43°34' E 007°05'0 0.0
2017-May-27 08:18N 43°34' E 007°05'0 0.0
2017-May-27 08:00N 43°34' E 007°05'2 0.1
2017-May-26 14:54N 43°32' E 007°05'10112.4
2017-May-26 06:46N 42°15' E 005°36'2712.8
2017-May-26 04:38N 41°55' E 005°11'312.8
2017-May-26 04:22N 41°53' E 005°08'713.0
2017-May-26 03:49N 41°48' E 005°01'6712.7
2017-May-25 22:31N 40°58' E 004°00'112.8
2017-May-25 22:25N 40°57' E 003°59'612.8
2017-May-25 21:57N 40°53' E 003°54'4212.8
2017-May-25 18:38N 40°22' E 003°16'313.1
2017-May-25 18:25N 40°20' E 003°13'513.0
2017-May-25 18:00N 40°16' E 003°08'612.9
2017-May-25 17:30N 40°11' E 003°03'210.3
2017-May-25 17:21N 40°10' E 003°01'411.3
2017-May-25 17:00N 40°07' E 002°58'413.1
2017-May-25 16:40N 40°04' E 002°54'212.7
2017-May-25 16:30N 40°02' E 002°52'113.6
2017-May-25 16:25N 40°01' E 002°51'512.9
2017-May-25 16:00N 39°57' E 002°46'113.6
2017-May-25 15:56N 39°57' E 002°46'512.7
2017-May-25 15:30N 39°53' E 002°41'016.7
2017-May-25 15:30N 39°53' E 002°40'612.7
2017-May-25 15:00N 39°48' E 002°35'1513.1
2017-May-25 13:51N 39°37' E 002°22'511.7
2017-May-25 13:27N 39°32' E 002°21'513.4
2017-May-25 13:06N 39°29' E 002°26'113.5
2017-May-25 13:01N 39°28' E 002°27'0 4.7
2017-May-25 13:00N 39°28' E 002°27'510.9
2017-May-25 12:30N 39°29' E 002°34'030.8
2017-May-25 12:30N 39°29' E 002°34'611.2
2017-May-25 12:00N 39°33' E 002°39'0 0.9
2017-May-25 11:59N 39°33' E 002°39'1 1.5
2017-May-25 11:30N 39°34' E 002°38'0 0.0
2017-May-25 10:58N 39°34' E 002°38'0 0.0
2017-May-25 10:28N 39°34' E 002°38'0 0.0
2017-May-25 09:58N 39°34' E 002°38'0 0.0
2017-May-25 09:28N 39°34' E 002°38'0 0.0
2017-May-25 08:58N 39°34' E 002°38'0 0.3
2017-May-25 08:28N 39°34' E 002°38'0 0.5
2017-May-25 08:09N 39°34' E 002°38'0 0.2
2017-May-25 08:00N 39°34' E 002°38'0 4.3
2017-May-25 07:58N 39°34' E 002°38'0 0.0
2017-May-25 07:28N 39°34' E 002°38'031.8
2017-May-25 07:28N 39°34' E 002°38'0 0.0
2017-May-25 06:58N 39°34' E 002°38'0 0.7
2017-May-25 06:57N 39°34' E 002°38'0 0.0
2017-May-25 06:28N 39°34' E 002°38'0 2.5
2017-May-25 06:28N 39°34' E 002°38'0 0.0
2017-May-25 05:58N 39°34' E 002°38'0 0.0
2017-May-25 05:28N 39°34' E 002°38'0 0.0
2017-May-25 04:58N 39°34' E 002°38'0 0.0
2017-May-25 04:28N 39°34' E 002°38'0 0.0
2017-May-25 03:58N 39°34' E 002°38'0 0.0
2017-May-25 03:28N 39°34' E 002°38'0 0.0
2017-May-25 02:58N 39°34' E 002°38'0 0.0
2017-May-25 02:28N 39°34' E 002°38'0 0.0
2017-May-25 01:58N 39°34' E 002°38'0 0.0
2017-May-25 01:28N 39°34' E 002°38'0 0.0
2017-May-25 00:58N 39°34' E 002°38'0 0.0
2017-May-25 00:28N 39°34' E 002°38'0 0.0
2017-May-24 23:58N 39°34' E 002°38'0 0.0
2017-May-24 23:28N 39°34' E 002°38'0 0.0
2017-May-24 22:58N 39°34' E 002°38'0 0.0
2017-May-24 22:28N 39°34' E 002°38'0 0.0
2017-May-24 21:58N 39°34' E 002°38'0 0.0
2017-May-24 21:28N 39°34' E 002°38'0 0.0
2017-May-24 20:58N 39°34' E 002°38'0 0.0
2017-May-24 20:28N 39°34' E 002°38'0 0.0
2017-May-24 19:58N 39°34' E 002°38'0 0.0
2017-May-24 19:25N 39°34' E 002°38'0 0.0
2017-May-24 18:58N 39°34' E 002°38'0 0.0
2017-May-24 18:28N 39°34' E 002°38'0 0.0
2017-May-24 17:58N 39°34' E 002°38'0 0.0
2017-May-24 17:28N 39°34' E 002°38'0 0.0
2017-May-24 16:55N 39°34' E 002°38'0 0.0
2017-May-24 16:28N 39°34' E 002°38'0 0.0
2017-May-24 15:58N 39°34' E 002°38'0 0.0
2017-May-24 15:28N 39°34' E 002°38'0 0.1
2017-May-24 15:22N 39°34' E 002°38'0 0.0
2017-May-24 14:58N 39°34' E 002°38'0 0.0
2017-May-24 13:58N 39°34' E 002°38'0 0.0
2017-May-24 13:28N 39°34' E 002°38'0 0.0
2017-May-24 12:58N 39°34' E 002°38'0 0.0
2017-May-24 12:28N 39°34' E 002°38'0 0.0
2017-May-24 11:58N 39°34' E 002°38'0 0.0
2017-May-24 11:28N 39°34' E 002°38'0 0.0
2017-May-24 10:58N 39°34' E 002°38'0 0.0
2017-May-24 10:28N 39°34' E 002°38'0 0.0
2017-May-24 09:58N 39°34' E 002°38'0 0.0
2017-May-24 09:28N 39°34' E 002°38'0 0.0
2017-May-24 08:58N 39°34' E 002°38'0 0.0
2017-May-24 08:28N 39°34' E 002°38'0 0.0
2017-May-24 08:05N 39°34' E 002°38'0 0.0
2017-May-24 07:59N 39°34' E 002°38'0 0.9
2017-May-24 07:58N 39°34' E 002°38'0 0.0
2017-May-24 07:28N 39°34' E 002°38'0 0.0
2017-May-24 06:58N 39°34' E 002°38'0 0.0
2017-May-24 06:28N 39°34' E 002°38'0 0.0
2017-May-24 05:58N 39°34' E 002°38'0 0.0
2017-May-24 05:28N 39°34' E 002°38'0 0.0
2017-May-24 04:58N 39°34' E 002°38'0 0.0
2017-May-24 04:28N 39°34' E 002°38'0 0.0
2017-May-24 03:58N 39°34' E 002°38'0 0.0
2017-May-24 03:28N 39°34' E 002°38'0 0.0
2017-May-24 02:58N 39°34' E 002°38'0 0.0
2017-May-24 02:28N 39°34' E 002°38'0 0.0
2017-May-24 01:28N 39°34' E 002°38'0 0.0
2017-May-24 00:58N 39°34' E 002°38'0 0.0
2017-May-24 00:28N 39°34' E 002°38'0 0.0
2017-May-23 23:58N 39°34' E 002°38'0 0.0
2017-May-23 23:16N 39°34' E 002°38'0 0.0
2017-May-23 22:58N 39°34' E 002°38'0 0.0
2017-May-23 22:28N 39°34' E 002°38'0 0.0
2017-May-23 21:58N 39°34' E 002°38'0 0.0
2017-May-23 21:28N 39°34' E 002°38'0 0.0
2017-May-23 20:58N 39°34' E 002°38'0 0.0
2017-May-23 20:28N 39°34' E 002°38'0 0.0
2017-May-23 19:58N 39°34' E 002°38'0 0.0
2017-May-23 19:28N 39°34' E 002°38'0 0.0
2017-May-23 18:58N 39°34' E 002°38'0 0.0
2017-May-23 18:28N 39°34' E 002°38'0 0.0
2017-May-23 17:58N 39°34' E 002°38'0 0.0
2017-May-23 17:28N 39°34' E 002°38'0 0.0
2017-May-23 16:58N 39°34' E 002°38'0 0.0
2017-May-23 16:28N 39°34' E 002°38'0 0.0
2017-May-23 12:35N 39°34' E 002°38'0 0.0
2017-May-23 12:29N 39°34' E 002°38'0 0.0
2017-May-23 11:59N 39°34' E 002°38'0 0.8
2017-May-23 11:54N 39°34' E 002°38'0 0.0
2017-May-23 11:30N 39°34' E 002°38'0 1.0
2017-May-23 11:26N 39°34' E 002°38'0 0.2
2017-May-23 11:00N 39°34' E 002°38'0 3.9
2017-May-23 10:59N 39°34' E 002°38'0 0.1
2017-May-23 10:30N 39°34' E 002°38'0 0.3
2017-May-23 10:17N 39°34' E 002°38'0 0.2
2017-May-23 10:00N 39°34' E 002°38'0 4.4
2017-May-23 09:59N 39°34' E 002°38'0 0.1
2017-May-23 09:30N 39°34' E 002°38'0 4.4
2017-May-23 09:29N 39°34' E 002°38'0 0.1
2017-May-23 09:00N 39°34' E 002°38'0 4.5
2017-May-23 08:59N 39°34' E 002°38'0 0.1
2017-May-23 08:30N 39°34' E 002°38'0 4.7
2017-May-23 08:29N 39°34' E 002°38'0 0.1
2017-May-23 08:00N 39°34' E 002°38'0 0.3
2017-May-23 07:50N 39°34' E 002°38'0 0.0
2017-May-23 07:29N 39°34' E 002°38'0 1.2
2017-May-23 07:26N 39°34' E 002°38'0 0.0
2017-May-23 06:59N 39°34' E 002°38'0 1.0
2017-May-23 06:56N 39°34' E 002°38'0 0.2
2017-May-23 06:29N 39°34' E 002°38'029.9
2017-May-23 06:29N 39°34' E 002°38'0 0.2
2017-May-23 05:59N 39°34' E 002°38'026.1
2017-May-23 05:59N 39°34' E 002°38'0 0.2
2017-May-23 05:29N 39°34' E 002°38'037.3
2017-May-23 05:29N 39°34' E 002°38'0 0.3
2017-May-23 04:59N 39°34' E 002°38'0 0.6
2017-May-23 04:50N 39°34' E 002°38'0 0.3
2017-May-23 04:29N 39°34' E 002°38'025.5
2017-May-23 04:29N 39°34' E 002°38'0 0.2
2017-May-23 03:59N 39°34' E 002°38'027.4
2017-May-23 03:59N 39°34' E 002°38'0 0.2
2017-May-23 03:29N 39°34' E 002°38'026.9
2017-May-23 03:29N 39°34' E 002°38'0 0.2
2017-May-23 02:59N 39°34' E 002°38'027.7
2017-May-23 02:59N 39°34' E 002°38'0 0.2
2017-May-23 02:29N 39°34' E 002°38'032.9
2017-May-23 02:29N 39°34' E 002°38'0 0.2
2017-May-23 01:59N 39°34' E 002°38'021.4
2017-May-23 01:59N 39°34' E 002°38'0 0.2
2017-May-23 01:29N 39°34' E 002°38'028.4
2017-May-23 01:29N 39°34' E 002°38'0 0.2
2017-May-23 00:59N 39°34' E 002°38'065.2
2017-May-23 00:59N 39°34' E 002°38'0 0.2
2017-May-23 00:29N 39°34' E 002°38'033.9
2017-May-23 00:29N 39°34' E 002°38'0 0.2
2017-May-22 23:59N 39°34' E 002°38'029.8
2017-May-22 23:59N 39°34' E 002°38'0 0.2
2017-May-22 23:29N 39°34' E 002°38'031.1
2017-May-22 23:29N 39°34' E 002°38'0 0.2
2017-May-22 22:59N 39°34' E 002°38'031.1
2017-May-22 22:59N 39°34' E 002°38'0 0.2
2017-May-22 22:29N 39°34' E 002°38'031.1
2017-May-22 22:29N 39°34' E 002°38'0 0.2
2017-May-22 21:59N 39°34' E 002°38'028.5
2017-May-22 21:59N 39°34' E 002°38'0 0.2
2017-May-22 21:29N 39°34' E 002°38'030.0
2017-May-22 21:29N 39°34' E 002°38'0 0.2
2017-May-22 20:59N 39°34' E 002°38'034.9
2017-May-22 20:59N 39°34' E 002°38'0 0.2
2017-May-22 20:29N 39°34' E 002°38'037.7
2017-May-22 20:29N 39°34' E 002°38'0 0.2
2017-May-22 19:59N 39°34' E 002°38'031.3
2017-May-22 19:59N 39°34' E 002°38'0 0.2
2017-May-22 19:29N 39°34' E 002°38'023.8
2017-May-22 19:29N 39°34' E 002°38'0 0.2
2017-May-22 18:59N 39°34' E 002°38'0 1.0
2017-May-22 18:53N 39°34' E 002°38'0 0.0
2017-May-22 18:29N 39°34' E 002°38'028.5
2017-May-22 18:29N 39°34' E 002°38'0 0.0
2017-May-22 17:59N 39°34' E 002°38'0 0.0
2017-May-22 17:26N 39°34' E 002°38'0 0.0
2017-May-22 16:59N 39°34' E 002°38'0 0.0
2017-May-22 16:29N 39°34' E 002°38'0 0.0
2017-May-22 15:59N 39°34' E 002°38'0 0.0
2017-May-22 15:29N 39°34' E 002°38'0 0.0
2017-May-22 14:59N 39°34' E 002°38'0 0.2
2017-May-22 14:35N 39°34' E 002°38'0 0.0
2017-May-22 14:29N 39°34' E 002°38'0 0.2
2017-May-22 13:59N 39°34' E 002°38'0 0.0
2017-May-22 13:26N 39°34' E 002°38'0 0.6
2017-May-22 13:17N 39°34' E 002°38'0 0.3
2017-May-22 12:59N 39°34' E 002°38'010.6
2017-May-22 12:59N 39°34' E 002°38'0 0.2
2017-May-22 12:29N 39°34' E 002°38'0 0.8
2017-May-22 12:23N 39°34' E 002°38'0 0.2
2017-May-22 11:59N 39°34' E 002°38'011.5
2017-May-22 11:59N 39°34' E 002°38'0 0.2
2017-May-22 11:29N 39°34' E 002°38'011.2
2017-May-22 11:29N 39°34' E 002°38'0 0.0
2017-May-22 10:59N 39°34' E 002°38'0 0.0
2017-May-22 10:29N 39°34' E 002°38'0 0.2
2017-May-22 09:57N 39°34' E 002°38'0 0.7
2017-May-22 09:50N 39°34' E 002°38'0 0.3
2017-May-22 09:30N 39°34' E 002°38'0 0.3
2017-May-22 09:14N 39°34' E 002°38'0 0.4
2017-May-22 09:00N 39°34' E 002°38'0 4.9
2017-May-22 08:59N 39°34' E 002°38'0 0.2
2017-May-22 08:24N 39°34' E 002°38'0 4.6
2017-May-22 08:23N 39°34' E 002°38'0 0.0
2017-May-22 07:59N 39°34' E 002°38'0 2.9
2017-May-22 07:57N 39°34' E 002°38'0 0.0
2017-May-22 07:30N 39°34' E 002°38'0 4.7
2017-May-22 07:29N 39°34' E 002°38'0 0.0
2017-May-22 06:59N 39°34' E 002°38'0 0.0
2017-May-22 06:29N 39°34' E 002°38'0 0.0
2017-May-22 05:59N 39°34' E 002°38'0 0.0
2017-May-22 05:29N 39°34' E 002°38'0 0.0
2017-May-22 04:50N 39°34' E 002°38'0 0.0
2017-May-22 04:29N 39°34' E 002°38'0 0.0
2017-May-22 03:59N 39°34' E 002°38'0 0.0
2017-May-22 03:29N 39°34' E 002°38'0 0.0
2017-May-22 02:59N 39°34' E 002°38'0 0.0
2017-May-22 02:29N 39°34' E 002°38'0 0.0
2017-May-22 01:59N 39°34' E 002°38'0 0.0
2017-May-22 01:29N 39°34' E 002°38'0 0.0
2017-May-22 00:59N 39°34' E 002°38'0 0.0
2017-May-22 00:29N 39°34' E 002°38'0 0.0
2017-May-21 23:59N 39°34' E 002°38'0 0.0
2017-May-21 23:29N 39°34' E 002°38'0 0.0
2017-May-21 22:59N 39°34' E 002°38'0 0.0
2017-May-21 22:29N 39°34' E 002°38'0 0.0
2017-May-21 21:59N 39°34' E 002°38'0 0.0
2017-May-21 21:29N 39°34' E 002°38'0 0.0
2017-May-21 20:59N 39°34' E 002°38'0 0.0
2017-May-21 20:29N 39°34' E 002°38'0 0.0
2017-May-21 19:59N 39°34' E 002°38'0 0.0
2017-May-21 19:02N 39°34' E 002°38'0 0.0
2017-May-21 18:59N 39°34' E 002°38'0 0.0
2017-May-21 18:29N 39°34' E 002°38'0 0.0
2017-May-21 17:59N 39°34' E 002°38'0 0.0
2017-May-21 17:29N 39°34' E 002°38'0 0.0
2017-May-21 16:59N 39°34' E 002°38'0 0.0
2017-May-21 16:29N 39°34' E 002°38'0 0.0
2017-May-21 15:59N 39°34' E 002°38'0 0.0
2017-May-21 15:29N 39°34' E 002°38'0 0.0
2017-May-21 14:59N 39°34' E 002°38'0 0.0
2017-May-21 14:29N 39°34' E 002°38'0 0.0
2017-May-21 13:20N 39°34' E 002°38'0 0.0
2017-May-21 12:59N 39°34' E 002°38'0 0.0
2017-May-21 12:29N 39°34' E 002°38'0 0.0
2017-May-21 11:59N 39°34' E 002°38'0 0.0
2017-May-21 11:26N 39°34' E 002°38'0 0.0
2017-May-21 10:59N 39°34' E 002°38'0 0.0
2017-May-21 10:29N 39°34' E 002°38'0 0.0
2017-May-21 09:44N 39°34' E 002°38'0 0.0
2017-May-21 09:29N 39°34' E 002°38'0 0.0
2017-May-21 08:59N 39°34' E 002°38'0 0.0
2017-May-21 08:29N 39°34' E 002°38'0 0.0
2017-May-21 07:59N 39°34' E 002°38'0 0.0
2017-May-21 07:29N 39°34' E 002°38'0 0.0
2017-May-21 06:50N 39°34' E 002°38'0 0.0
2017-May-21 06:26N 39°34' E 002°38'0 0.0
2017-May-21 05:59N 39°34' E 002°38'0 0.0
2017-May-21 05:29N 39°34' E 002°38'0 0.0
2017-May-21 04:59N 39°34' E 002°38'0 0.0
2017-May-21 04:29N 39°34' E 002°38'0 0.0
2017-May-21 03:59N 39°34' E 002°38'0 0.0
2017-May-21 03:20N 39°34' E 002°38'0 0.0
2017-May-21 02:59N 39°34' E 002°38'0 0.0
2017-May-21 02:29N 39°34' E 002°38'0 0.0
2017-May-21 01:59N 39°34' E 002°38'0 0.0
2017-May-21 01:29N 39°34' E 002°38'0 0.0
2017-May-21 00:59N 39°34' E 002°38'0 0.0
2017-May-21 00:29N 39°34' E 002°38'0 0.0
2017-May-20 23:59N 39°34' E 002°38'0 0.0
2017-May-20 23:29N 39°34' E 002°38'0 0.0
2017-May-20 22:59N 39°34' E 002°38'0 0.0
2017-May-20 22:29N 39°34' E 002°38'0 0.0
2017-May-20 21:56N 39°34' E 002°38'0 0.0
2017-May-20 21:29N 39°34' E 002°38'0 0.0
2017-May-20 20:59N 39°34' E 002°38'0 0.0
2017-May-20 20:29N 39°34' E 002°38'0 0.0
2017-May-20 19:59N 39°34' E 002°38'0 0.0
2017-May-20 19:14N 39°34' E 002°38'0 0.0
2017-May-20 18:59N 39°34' E 002°38'0 0.0
2017-May-20 18:29N 39°34' E 002°38'0 0.0
2017-May-20 17:59N 39°34' E 002°38'0 0.0
2017-May-20 17:29N 39°34' E 002°38'0 0.0
2017-May-20 16:59N 39°34' E 002°38'0 0.0
2017-May-20 16:29N 39°34' E 002°38'0 0.0
2017-May-20 15:59N 39°34' E 002°38'0 0.0
2017-May-20 15:29N 39°34' E 002°38'0 0.0
2017-May-20 14:59N 39°34' E 002°38'0 0.0
2017-May-20 14:29N 39°34' E 002°38'0 0.0
2017-May-20 13:20N 39°34' E 002°38'0 0.0
2017-May-20 12:59N 39°34' E 002°38'0 0.0
2017-May-20 12:29N 39°34' E 002°38'0 0.0
2017-May-20 11:59N 39°34' E 002°38'0 0.0
2017-May-20 11:29N 39°34' E 002°38'0 0.0
2017-May-20 10:59N 39°34' E 002°38'0 0.0
2017-May-20 10:29N 39°34' E 002°38'0 0.0
2017-May-20 09:53N 39°34' E 002°38'0 0.3
2017-May-20 09:33N 39°34' E 002°38'0 0.0
2017-May-20 09:30N 39°34' E 002°38'0 0.7
2017-May-20 09:23N 39°34' E 002°38'0 0.2
2017-May-20 09:00N 39°34' E 002°38'0 3.0
2017-May-20 08:59N 39°34' E 002°38'0 0.2
2017-May-20 08:30N 39°34' E 002°38'0 2.7
2017-May-20 08:29N 39°34' E 002°38'0 0.0
2017-May-20 07:59N 39°34' E 002°38'0 0.0
2017-May-20 07:29N 39°34' E 002°38'0 0.0
2017-May-20 06:59N 39°34' E 002°38'0 0.0
2017-May-20 06:29N 39°34' E 002°38'0 0.0
2017-May-20 05:59N 39°34' E 002°38'0 0.0
2017-May-20 05:26N 39°34' E 002°38'0 0.0
2017-May-20 04:56N 39°34' E 002°38'0 0.0
2017-May-20 04:29N 39°34' E 002°38'0 0.0
2017-May-20 03:59N 39°34' E 002°38'0 0.0
2017-May-20 03:26N 39°34' E 002°38'0 0.0
2017-May-20 02:59N 39°34' E 002°38'0 0.0
2017-May-20 02:29N 39°34' E 002°38'0 0.0
2017-May-20 01:59N 39°34' E 002°38'0 0.0
2017-May-20 01:29N 39°34' E 002°38'  
Track history (hours):
 
Tides and Currents Weather Stations Pressure Air Temp Water Temp Dewpoint Dewpoint Depression Visibility Wind Speed Wind Dir Waves Ship Positions

Bella Vita

Last reported at 2017-May-30 00:59 UTC. Time now 2017-May-30 01:13 UTC.
Position N 42°05' E 011°11'.

Length 45 m; draft 2.7 m.

Type: Pleasure craft. MMSI: 319016600.

Date/timePositionNaut miles runAvg speedWind from/ knotsBaromVisibWave heightAir tempDewpointWater temp
2017-May-30 00:59N 42°05' E 011°11'612.9
2017-May-30 00:30N 42°09' E 011°05'813.2
2017-May-29 23:55N 42°13' E 010°56'512.9
2017-May-29 23:30N 42°17' E 010°50'612.9
2017-May-29 23:00N 42°20' E 010°43'713.0
2017-May-29 22:28N 42°24' E 010°35'613.2
2017-May-29 21:59N 42°28' E 010°28'913.2
2017-May-29 21:17N 42°33' E 010°18'413.2
2017-May-29 20:59N 42°35' E 010°13'613.1
2017-May-29 20:29N 42°39' E 010°07'813.4
2017-May-29 19:54N 42°44' E 009°58'513.3
2017-May-29 19:30N 42°46' E 009°51'713.3
2017-May-29 19:00N 42°50' E 009°44'713.3
2017-May-29 18:30N 42°53' E 009°36'612.7
2017-May-29 18:00N 42°60' E 009°35'612.3
2017-May-29 17:30N 43°05' E 009°30'912.5
2017-May-29 16:48N 43°09' E 009°20'413.0
2017-May-29 16:30N 43°10' E 009°14'1613.3
2017-May-29 15:18N 43°13' E 008°53'1513.1
2017-May-29 14:10N 43°17' E 008°34'1313.0
2017-May-29 13:08N 43°20' E 008°16'212.7
2017-May-29 13:00N 43°21' E 008°13'713.0
2017-May-29 12:30N 43°22' E 008°05'613.0
2017-May-29 12:00N 43°24' E 007°56'613.0
2017-May-29 11:30N 43°25' E 007°47'713.0
2017-May-29 11:00N 43°27' E 007°39'612.8
2017-May-29 10:30N 43°28' E 007°30'19 0.4
2017-May-27 08:42N 43°34' E 007°05'0 0.0
2017-May-27 08:18N 43°34' E 007°05'0 0.0
2017-May-27 08:00N 43°34' E 007°05'2 0.1
2017-May-26 14:54N 43°32' E 007°05'10112.4
2017-May-26 06:46N 42°15' E 005°36'2712.8
2017-May-26 04:38N 41°55' E 005°11'312.8
2017-May-26 04:22N 41°53' E 005°08'713.0
2017-May-26 03:49N 41°48' E 005°01'6712.7
2017-May-25 22:31N 40°58' E 004°00'112.8
2017-May-25 22:25N 40°57' E 003°59'612.8
2017-May-25 21:57N 40°53' E 003°54'4212.8
2017-May-25 18:38N 40°22' E 003°16'313.1
2017-May-25 18:25N 40°20' E 003°13'513.0
2017-May-25 18:00N 40°16' E 003°08'612.9
2017-May-25 17:30N 40°11' E 003°03'210.3
2017-May-25 17:21N 40°10' E 003°01'411.3
2017-May-25 17:00N 40°07' E 002°58'413.1
2017-May-25 16:40N 40°04' E 002°54'212.7
2017-May-25 16:30N 40°02' E 002°52'113.6
2017-May-25 16:25N 40°01' E 002°51'512.9
2017-May-25 16:00N 39°57' E 002°46'113.6
2017-May-25 15:56N 39°57' E 002°46'512.7
2017-May-25 15:30N 39°53' E 002°41'016.7
2017-May-25 15:30N 39°53' E 002°40'612.7
2017-May-25 15:00N 39°48' E 002°35'1513.1
2017-May-25 13:51N 39°37' E 002°22'511.7
2017-May-25 13:27N 39°32' E 002°21'513.4
2017-May-25 13:06N 39°29' E 002°26'113.5
2017-May-25 13:01N 39°28' E 002°27'0 4.7
2017-May-25 13:00N 39°28' E 002°27'510.9
2017-May-25 12:30N 39°29' E 002°34'030.8
2017-May-25 12:30N 39°29' E 002°34'611.2
2017-May-25 12:00N 39°33' E 002°39'0 0.9
2017-May-25 11:59N 39°33' E 002°39'1 1.5
2017-May-25 11:30N 39°34' E 002°38'0 0.0
2017-May-25 10:58N 39°34' E 002°38'0 0.0
2017-May-25 10:28N 39°34' E 002°38'0 0.0
2017-May-25 09:58N 39°34' E 002°38'0 0.0
2017-May-25 09:28N 39°34' E 002°38'0 0.0
2017-May-25 08:58N 39°34' E 002°38'0 0.3
2017-May-25 08:28N 39°34' E 002°38'0 0.5
2017-May-25 08:09N 39°34' E 002°38'0 0.2
2017-May-25 08:00N 39°34' E 002°38'0 4.3
2017-May-25 07:58N 39°34' E 002°38'0 0.0
2017-May-25 07:28N 39°34' E 002°38'031.8
2017-May-25 07:28N 39°34' E 002°38'0 0.0
2017-May-25 06:58N 39°34' E 002°38'0 0.7
2017-May-25 06:57N 39°34' E 002°38'0 0.0
2017-May-25 06:28N 39°34' E 002°38'0 2.5
2017-May-25 06:28N 39°34' E 002°38'0 0.0
2017-May-25 05:58N 39°34' E 002°38'0 0.0
2017-May-25 05:28N 39°34' E 002°38'0 0.0
2017-May-25 04:58N 39°34' E 002°38'0 0.0
2017-May-25 04:28N 39°34' E 002°38'0 0.0
2017-May-25 03:58N 39°34' E 002°38'0 0.0
2017-May-25 03:28N 39°34' E 002°38'0 0.0
2017-May-25 02:58N 39°34' E 002°38'0 0.0
2017-May-25 02:28N 39°34' E 002°38'0 0.0
2017-May-25 01:58N 39°34' E 002°38'0 0.0
2017-May-25 01:28N 39°34' E 002°38'0 0.0
2017-May-25 00:58N 39°34' E 002°38'0 0.0
2017-May-25 00:28N 39°34' E 002°38'0 0.0
2017-May-24 23:58N 39°34' E 002°38'0 0.0
2017-May-24 23:28N 39°34' E 002°38'0 0.0
2017-May-24 22:58N 39°34' E 002°38'0 0.0
2017-May-24 22:28N 39°34' E 002°38'0 0.0
2017-May-24 21:58N 39°34' E 002°38'0 0.0
2017-May-24 21:28N 39°34' E 002°38'0 0.0
2017-May-24 20:58N 39°34' E 002°38'0 0.0
2017-May-24 20:28N 39°34' E 002°38'0 0.0
2017-May-24 19:58N 39°34' E 002°38'0 0.0
2017-May-24 19:25N 39°34' E 002°38'0 0.0
2017-May-24 18:58N 39°34' E 002°38'0 0.0
2017-May-24 18:28N 39°34' E 002°38'0 0.0
2017-May-24 17:58N 39°34' E 002°38'0 0.0
2017-May-24 17:28N 39°34' E 002°38'0 0.0
2017-May-24 16:55N 39°34' E 002°38'0 0.0
2017-May-24 16:28N 39°34' E 002°38'0 0.0
2017-May-24 15:58N 39°34' E 002°38'0 0.0
2017-May-24 15:28N 39°34' E 002°38'0 0.1
2017-May-24 15:22N 39°34' E 002°38'0 0.0
2017-May-24 14:58N 39°34' E 002°38'0 0.0
2017-May-24 13:58N 39°34' E 002°38'0 0.0
2017-May-24 13:28N 39°34' E 002°38'0 0.0
2017-May-24 12:58N 39°34' E 002°38'0 0.0
2017-May-24 12:28N 39°34' E 002°38'0 0.0
2017-May-24 11:58N 39°34' E 002°38'0 0.0
2017-May-24 11:28N 39°34' E 002°38'0 0.0
2017-May-24 10:58N 39°34' E 002°38'0 0.0
2017-May-24 10:28N 39°34' E 002°38'0 0.0
2017-May-24 09:58N 39°34' E 002°38'0 0.0
2017-May-24 09:28N 39°34' E 002°38'0 0.0
2017-May-24 08:58N 39°34' E 002°38'0 0.0
2017-May-24 08:28N 39°34' E 002°38'0 0.0
2017-May-24 08:05N 39°34' E 002°38'0 0.0
2017-May-24 07:59N 39°34' E 002°38'0 0.9
2017-May-24 07:58N 39°34' E 002°38'0 0.0
2017-May-24 07:28N 39°34' E 002°38'0 0.0
2017-May-24 06:58N 39°34' E 002°38'0 0.0
2017-May-24 06:28N 39°34' E 002°38'0 0.0
2017-May-24 05:58N 39°34' E 002°38'0 0.0
2017-May-24 05:28N 39°34' E 002°38'0 0.0
2017-May-24 04:58N 39°34' E 002°38'0 0.0
2017-May-24 04:28N 39°34' E 002°38'0 0.0
2017-May-24 03:58N 39°34' E 002°38'0 0.0
2017-May-24 03:28N 39°34' E 002°38'0 0.0
2017-May-24 02:58N 39°34' E 002°38'0 0.0
2017-May-24 02:28N 39°34' E 002°38'0 0.0
2017-May-24 01:28N 39°34' E 002°38'0 0.0
2017-May-24 00:58N 39°34' E 002°38'0 0.0
2017-May-24 00:28N 39°34' E 002°38'0 0.0
2017-May-23 23:58N 39°34' E 002°38'0 0.0
2017-May-23 23:16N 39°34' E 002°38'0 0.0
2017-May-23 22:58N 39°34' E 002°38'0 0.0
2017-May-23 22:28N 39°34' E 002°38'0 0.0
2017-May-23 21:58N 39°34' E 002°38'0 0.0
2017-May-23 21:28N 39°34' E 002°38'0 0.0
2017-May-23 20:58N 39°34' E 002°38'0 0.0
2017-May-23 20:28N 39°34' E 002°38'0 0.0
2017-May-23 19:58N 39°34' E 002°38'0 0.0
2017-May-23 19:28N 39°34' E 002°38'0 0.0
2017-May-23 18:58N 39°34' E 002°38'0 0.0
2017-May-23 18:28N 39°34' E 002°38'0 0.0
2017-May-23 17:58N 39°34' E 002°38'0 0.0
2017-May-23 17:28N 39°34' E 002°38'0 0.0
2017-May-23 16:58N 39°34' E 002°38'0 0.0
2017-May-23 16:28N 39°34' E 002°38'0 0.0
2017-May-23 12:35N 39°34' E 002°38'0 0.0
2017-May-23 12:29N 39°34' E 002°38'0 0.0
2017-May-23 11:59N 39°34' E 002°38'0 0.8
2017-May-23 11:54N 39°34' E 002°38'0 0.0
2017-May-23 11:30N 39°34' E 002°38'0 1.0
2017-May-23 11:26N 39°34' E 002°38'0 0.2
2017-May-23 11:00N 39°34' E 002°38'0 3.9
2017-May-23 10:59N 39°34' E 002°38'0 0.1
2017-May-23 10:30N 39°34' E 002°38'0 0.3
2017-May-23 10:17N 39°34' E 002°38'0 0.2
2017-May-23 10:00N 39°34' E 002°38'0 4.4
2017-May-23 09:59N 39°34' E 002°38'0 0.1
2017-May-23 09:30N 39°34' E 002°38'0 4.4
2017-May-23 09:29N 39°34' E 002°38'0 0.1
2017-May-23 09:00N 39°34' E 002°38'0 4.5
2017-May-23 08:59N 39°34' E 002°38'0 0.1
2017-May-23 08:30N 39°34' E 002°38'0 4.7
2017-May-23 08:29N 39°34' E 002°38'0 0.1
2017-May-23 08:00N 39°34' E 002°38'0 0.3
2017-May-23 07:50N 39°34' E 002°38'0 0.0
2017-May-23 07:29N 39°34' E 002°38'0 1.2
2017-May-23 07:26N 39°34' E 002°38'0 0.0
2017-May-23 06:59N 39°34' E 002°38'0 1.0
2017-May-23 06:56N 39°34' E 002°38'0 0.2
2017-May-23 06:29N 39°34' E 002°38'029.9
2017-May-23 06:29N 39°34' E 002°38'0 0.2
2017-May-23 05:59N 39°34' E 002°38'026.1
2017-May-23 05:59N 39°34' E 002°38'0 0.2
2017-May-23 05:29N 39°34' E 002°38'037.3
2017-May-23 05:29N 39°34' E 002°38'0 0.3
2017-May-23 04:59N 39°34' E 002°38'0 0.6
2017-May-23 04:50N 39°34' E 002°38'0 0.3
2017-May-23 04:29N 39°34' E 002°38'025.5
2017-May-23 04:29N 39°34' E 002°38'0 0.2
2017-May-23 03:59N 39°34' E 002°38'027.4
2017-May-23 03:59N 39°34' E 002°38'0 0.2
2017-May-23 03:29N 39°34' E 002°38'026.9
2017-May-23 03:29N 39°34' E 002°38'0 0.2
2017-May-23 02:59N 39°34' E 002°38'027.7
2017-May-23 02:59N 39°34' E 002°38'0 0.2
2017-May-23 02:29N 39°34' E 002°38'032.9
2017-May-23 02:29N 39°34' E 002°38'0 0.2
2017-May-23 01:59N 39°34' E 002°38'021.4
2017-May-23 01:59N 39°34' E 002°38'0 0.2
2017-May-23 01:29N 39°34' E 002°38'028.4
2017-May-23 01:29N 39°34' E 002°38'0 0.2
2017-May-23 00:59N 39°34' E 002°38'065.2
2017-May-23 00:59N 39°34' E 002°38'0 0.2
2017-May-23 00:29N 39°34' E 002°38'033.9
2017-May-23 00:29N 39°34' E 002°38'0 0.2
2017-May-22 23:59N 39°34' E 002°38'029.8
2017-May-22 23:59N 39°34' E 002°38'0 0.2
2017-May-22 23:29N 39°34' E 002°38'031.1
2017-May-22 23:29N 39°34' E 002°38'0 0.2
2017-May-22 22:59N 39°34' E 002°38'031.1
2017-May-22 22:59N 39°34' E 002°38'0 0.2
2017-May-22 22:29N 39°34' E 002°38'031.1
2017-May-22 22:29N 39°34' E 002°38'0 0.2
2017-May-22 21:59N 39°34' E 002°38'028.5
2017-May-22 21:59N 39°34' E 002°38'0 0.2
2017-May-22 21:29N 39°34' E 002°38'030.0
2017-May-22 21:29N 39°34' E 002°38'0 0.2
2017-May-22 20:59N 39°34' E 002°38'034.9
2017-May-22 20:59N 39°34' E 002°38'0 0.2
2017-May-22 20:29N 39°34' E 002°38'037.7
2017-May-22 20:29N 39°34' E 002°38'0 0.2
2017-May-22 19:59N 39°34' E 002°38'031.3
2017-May-22 19:59N 39°34' E 002°38'0 0.2
2017-May-22 19:29N 39°34' E 002°38'023.8
2017-May-22 19:29N 39°34' E 002°38'0 0.2
2017-May-22 18:59N 39°34' E 002°38'0 1.0
2017-May-22 18:53N 39°34' E 002°38'0 0.0
2017-May-22 18:29N 39°34' E 002°38'028.5
2017-May-22 18:29N 39°34' E 002°38'0 0.0
2017-May-22 17:59N 39°34' E 002°38'0 0.0
2017-May-22 17:26N 39°34' E 002°38'0 0.0
2017-May-22 16:59N 39°34' E 002°38'0 0.0
2017-May-22 16:29N 39°34' E 002°38'0 0.0
2017-May-22 15:59N 39°34' E 002°38'0 0.0
2017-May-22 15:29N 39°34' E 002°38'0 0.0
2017-May-22 14:59N 39°34' E 002°38'0 0.2
2017-May-22 14:35N 39°34' E 002°38'0 0.0
2017-May-22 14:29N 39°34' E 002°38'0 0.2
2017-May-22 13:59N 39°34' E 002°38'0 0.0
2017-May-22 13:26N 39°34' E 002°38'0 0.6
2017-May-22 13:17N 39°34' E 002°38'0 0.3
2017-May-22 12:59N 39°34' E 002°38'010.6
2017-May-22 12:59N 39°34' E 002°38'0 0.2
2017-May-22 12:29N 39°34' E 002°38'0 0.8
2017-May-22 12:23N 39°34' E 002°38'0 0.2
2017-May-22 11:59N 39°34' E 002°38'011.5
2017-May-22 11:59N 39°34' E 002°38'0 0.2
2017-May-22 11:29N 39°34' E 002°38'011.2
2017-May-22 11:29N 39°34' E 002°38'0 0.0
2017-May-22 10:59N 39°34' E 002°38'0 0.0
2017-May-22 10:29N 39°34' E 002°38'0 0.2
2017-May-22 09:57N 39°34' E 002°38'0 0.7
2017-May-22 09:50N 39°34' E 002°38'0 0.3
2017-May-22 09:30N 39°34' E 002°38'0 0.3
2017-May-22 09:14N 39°34' E 002°38'0 0.4
2017-May-22 09:00N 39°34' E 002°38'0 4.9
2017-May-22 08:59N 39°34' E 002°38'0 0.2
2017-May-22 08:24N 39°34' E 002°38'0 4.6
2017-May-22 08:23N 39°34' E 002°38'0 0.0
2017-May-22 07:59N 39°34' E 002°38'0 2.9
2017-May-22 07:57N 39°34' E 002°38'0 0.0
2017-May-22 07:30N 39°34' E 002°38'0 4.7
2017-May-22 07:29N 39°34' E 002°38'0 0.0
2017-May-22 06:59N 39°34' E 002°38'0 0.0
2017-May-22 06:29N 39°34' E 002°38'0 0.0
2017-May-22 05:59N 39°34' E 002°38'0 0.0
2017-May-22 05:29N 39°34' E 002°38'0 0.0
2017-May-22 04:50N 39°34' E 002°38'0 0.0
2017-May-22 04:29N 39°34' E 002°38'0 0.0
2017-May-22 03:59N 39°34' E 002°38'0 0.0
2017-May-22 03:29N 39°34' E 002°38'0 0.0
2017-May-22 02:59N 39°34' E 002°38'0 0.0
2017-May-22 02:29N 39°34' E 002°38'0 0.0
2017-May-22 01:59N 39°34' E 002°38'0 0.0
2017-May-22 01:29N 39°34' E 002°38'0 0.0
2017-May-22 00:59N 39°34' E 002°38'0 0.0
2017-May-22 00:29N 39°34' E 002°38'0 0.0
2017-May-21 23:59N 39°34' E 002°38'0 0.0
2017-May-21 23:29N 39°34' E 002°38'0 0.0
2017-May-21 22:59N 39°34' E 002°38'0 0.0
2017-May-21 22:29N 39°34' E 002°38'0 0.0
2017-May-21 21:59N 39°34' E 002°38'0 0.0
2017-May-21 21:29N 39°34' E 002°38'0 0.0
2017-May-21 20:59N 39°34' E 002°38'0 0.0
2017-May-21 20:29N 39°34' E 002°38'0 0.0
2017-May-21 19:59N 39°34' E 002°38'0 0.0
2017-May-21 19:02N 39°34' E 002°38'0 0.0
2017-May-21 18:59N 39°34' E 002°38'0 0.0
2017-May-21 18:29N 39°34' E 002°38'0 0.0
2017-May-21 17:59N 39°34' E 002°38'0 0.0
2017-May-21 17:29N 39°34' E 002°38'0 0.0
2017-May-21 16:59N 39°34' E 002°38'0 0.0
2017-May-21 16:29N 39°34' E 002°38'0 0.0
2017-May-21 15:59N 39°34' E 002°38'0 0.0
2017-May-21 15:29N 39°34' E 002°38'0 0.0
2017-May-21 14:59N 39°34' E 002°38'0 0.0
2017-May-21 14:29N 39°34' E 002°38'0 0.0
2017-May-21 13:20N 39°34' E 002°38'0 0.0
2017-May-21 12:59N 39°34' E 002°38'0 0.0
2017-May-21 12:29N 39°34' E 002°38'0 0.0
2017-May-21 11:59N 39°34' E 002°38'0 0.0
2017-May-21 11:26N 39°34' E 002°38'0 0.0
2017-May-21 10:59N 39°34' E 002°38'0 0.0
2017-May-21 10:29N 39°34' E 002°38'0 0.0
2017-May-21 09:44N 39°34' E 002°38'0 0.0
2017-May-21 09:29N 39°34' E 002°38'0 0.0
2017-May-21 08:59N 39°34' E 002°38'0 0.0
2017-May-21 08:29N 39°34' E 002°38'0 0.0
2017-May-21 07:59N 39°34' E 002°38'0 0.0
2017-May-21 07:29N 39°34' E 002°38'0 0.0
2017-May-21 06:50N 39°34' E 002°38'0 0.0
2017-May-21 06:26N 39°34' E 002°38'0 0.0
2017-May-21 05:59N 39°34' E 002°38'0 0.0
2017-May-21 05:29N 39°34' E 002°38'0 0.0
2017-May-21 04:59N 39°34' E 002°38'0 0.0
2017-May-21 04:29N 39°34' E 002°38'0 0.0
2017-May-21 03:59N 39°34' E 002°38'0 0.0
2017-May-21 03:20N 39°34' E 002°38'0 0.0
2017-May-21 02:59N 39°34' E 002°38'0 0.0
2017-May-21 02:29N 39°34' E 002°38'0 0.0
2017-May-21 01:59N 39°34' E 002°38'0 0.0
2017-May-21 01:29N 39°34' E 002°38'0 0.0
2017-May-21 00:59N 39°34' E 002°38'0 0.0
2017-May-21 00:29N 39°34' E 002°38'0 0.0
2017-May-20 23:59N 39°34' E 002°38'0 0.0
2017-May-20 23:29N 39°34' E 002°38'0 0.0
2017-May-20 22:59N 39°34' E 002°38'0 0.0
2017-May-20 22:29N 39°34' E 002°38'0 0.0
2017-May-20 21:56N 39°34' E 002°38'0 0.0
2017-May-20 21:29N 39°34' E 002°38'0 0.0
2017-May-20 20:59N 39°34' E 002°38'0 0.0
2017-May-20 20:29N 39°34' E 002°38'0 0.0
2017-May-20 19:59N 39°34' E 002°38'0 0.0
2017-May-20 19:14N 39°34' E 002°38'0 0.0
2017-May-20 18:59N 39°34' E 002°38'0 0.0
2017-May-20 18:29N 39°34' E 002°38'0 0.0
2017-May-20 17:59N 39°34' E 002°38'0 0.0
2017-May-20 17:29N 39°34' E 002°38'0 0.0
2017-May-20 16:59N 39°34' E 002°38'0 0.0
2017-May-20 16:29N 39°34' E 002°38'0 0.0
2017-May-20 15:59N 39°34' E 002°38'0 0.0
2017-May-20 15:29N 39°34' E 002°38'0 0.0
2017-May-20 14:59N 39°34' E 002°38'0 0.0
2017-May-20 14:29N 39°34' E 002°38'0 0.0
2017-May-20 13:20N 39°34' E 002°38'0 0.0
2017-May-20 12:59N 39°34' E 002°38'0 0.0
2017-May-20 12:29N 39°34' E 002°38'0 0.0
2017-May-20 11:59N 39°34' E 002°38'0 0.0
2017-May-20 11:29N 39°34' E 002°38'0 0.0
2017-May-20 10:59N 39°34' E 002°38'0 0.0
2017-May-20 10:29N 39°34' E 002°38'0 0.0
2017-May-20 09:53N 39°34' E 002°38'0 0.3
2017-May-20 09:33N 39°34' E 002°38'0 0.0
2017-May-20 09:30N 39°34' E 002°38'0 0.7
2017-May-20 09:23N 39°34' E 002°38'0 0.2
2017-May-20 09:00N 39°34' E 002°38'0 3.0
2017-May-20 08:59N 39°34' E 002°38'0 0.2
2017-May-20 08:30N 39°34' E 002°38'0 2.7
2017-May-20 08:29N 39°34' E 002°38'0 0.0
2017-May-20 07:59N 39°34' E 002°38'0 0.0
2017-May-20 07:29N 39°34' E 002°38'0 0.0
2017-May-20 06:59N 39°34' E 002°38'0 0.0
2017-May-20 06:29N 39°34' E 002°38'0 0.0
2017-May-20 05:59N 39°34' E 002°38'0 0.0
2017-May-20 05:26N 39°34' E 002°38'0 0.0
2017-May-20 04:56N 39°34' E 002°38'0 0.0
2017-May-20 04:29N 39°34' E 002°38'0 0.0
2017-May-20 03:59N 39°34' E 002°38'0 0.0
2017-May-20 03:26N 39°34' E 002°38'0 0.0
2017-May-20 02:59N 39°34' E 002°38'0 0.0
2017-May-20 02:29N 39°34' E 002°38'0 0.0
2017-May-20 01:59N 39°34' E 002°38'0 0.0
2017-May-20 01:29N 39°34' E 002°38'  

Dump ship's entire track history